createdAt,value
2023-05-01T00:01:31.250Z,8.56
2023-05-01T00:03:58.041Z,8.50
2023-05-01T00:06:24.973Z,8.69
2023-05-01T00:08:51.643Z,8.75
2023-05-01T00:11:18.156Z,8.88
2023-05-01T00:13:44.708Z,8.81
2023-05-01T00:16:12.590Z,8.81
2023-05-01T00:18:39.491Z,8.94
2023-05-01T00:21:06.247Z,9.06
2023-05-01T00:23:32.796Z,9.00
2023-05-01T00:25:59.317Z,8.88
2023-05-01T00:28:25.823Z,8.94
2023-05-01T00:30:52.371Z,9.00
2023-05-01T00:33:19.024Z,9.13
2023-05-01T00:35:46.377Z,9.00
2023-05-01T00:38:13.244Z,9.00
2023-05-01T00:40:46.644Z,8.88
2023-05-01T00:43:13.761Z,8.88
2023-05-01T00:45:44.409Z,8.75
2023-05-01T00:48:11.433Z,8.63
2023-05-01T00:50:38.754Z,8.50
2023-05-01T00:53:05.431Z,8.38
2023-05-01T00:55:33.666Z,8.31
2023-05-01T00:58:01.796Z,8.19
2023-05-01T01:00:29.592Z,8.25
2023-05-01T01:02:56.679Z,8.13
2023-05-01T01:05:27.257Z,8.00
2023-05-01T01:08:06.373Z,8.13
2023-05-01T01:10:43.781Z,8.31
2023-05-01T01:13:20.178Z,8.31
2023-05-01T01:16:10.264Z,8.19
2023-05-01T01:18:42.310Z,8.13
2023-05-01T01:21:18.669Z,8.31
2023-05-01T01:24:19.084Z,8.31
2023-05-01T01:27:02.557Z,8.06
2023-05-01T01:29:42.862Z,7.81
2023-05-01T01:32:21.009Z,7.75
2023-05-01T01:35:03.167Z,7.94
2023-05-01T01:37:43.067Z,8.06
2023-05-01T01:40:14.185Z,7.75
2023-05-01T01:43:01.904Z,8.00
2023-05-01T01:45:36.463Z,8.06
2023-05-01T01:48:03.699Z,7.69
2023-05-01T01:50:32.084Z,7.69
2023-05-01T01:53:01.900Z,7.94
2023-05-01T01:55:31.660Z,7.81
2023-05-01T01:57:59.916Z,8.00
2023-05-01T02:00:28.450Z,7.81
2023-05-01T02:02:56.546Z,7.94
2023-05-01T02:05:25.916Z,7.94
2023-05-01T02:07:53.163Z,8.13
2023-05-01T02:10:22.789Z,8.06
2023-05-01T02:12:51.939Z,8.19
2023-05-01T02:15:19.740Z,8.19
2023-05-01T02:17:46.352Z,8.00
2023-05-01T02:20:14.177Z,8.06
2023-05-01T02:22:41.988Z,8.00
2023-05-01T02:25:13.510Z,8.19
2023-05-01T02:27:48.888Z,8.19
2023-05-01T02:30:15.488Z,7.75
2023-05-01T02:32:44.978Z,7.94
2023-05-01T02:35:11.568Z,8.13
2023-05-01T02:37:38.540Z,7.88
2023-05-01T02:40:10.761Z,7.94
2023-05-01T02:42:39.391Z,8.06
2023-05-01T02:45:09.218Z,7.94
2023-05-01T02:47:39.536Z,7.81
2023-05-01T02:50:08.143Z,7.88
2023-05-01T02:52:34.968Z,7.81
2023-05-01T02:55:02.066Z,7.81
2023-05-01T02:57:28.621Z,8.00
2023-05-01T02:59:55.443Z,7.81
2023-05-01T03:02:22.236Z,7.88
2023-05-01T03:04:48.942Z,7.75
2023-05-01T03:07:15.609Z,7.75
2023-05-01T03:09:42.210Z,7.81
2023-05-01T03:12:08.943Z,7.88
2023-05-01T03:14:35.506Z,8.00
2023-05-01T03:17:02.235Z,7.88
2023-05-01T03:19:28.734Z,7.81
2023-05-01T03:21:55.289Z,7.75
2023-05-01T03:24:21.880Z,7.81
2023-05-01T03:26:48.479Z,7.94
2023-05-01T03:29:15.085Z,7.94
2023-05-01T03:31:41.667Z,7.81
2023-05-01T03:34:08.253Z,7.88
2023-05-01T03:36:34.920Z,7.81
2023-05-01T03:39:01.489Z,7.94
2023-05-01T03:41:28.027Z,7.94
2023-05-01T03:43:55.021Z,8.13
2023-05-01T03:46:21.849Z,8.06
2023-05-01T03:48:48.440Z,7.94
2023-05-01T03:51:17.082Z,7.88
2023-05-01T03:53:43.584Z,8.00
2023-05-01T03:56:10.148Z,8.13
2023-05-01T03:58:36.739Z,8.38
2023-05-01T04:01:03.803Z,8.56
2023-05-01T04:03:30.498Z,8.63
2023-05-01T04:05:57.151Z,8.38
2023-05-01T04:08:23.855Z,8.44
2023-05-01T04:10:50.371Z,8.56
2023-05-01T04:13:17.512Z,8.75
2023-05-01T04:15:46.035Z,8.75
2023-05-01T04:18:12.673Z,8.44
2023-05-01T04:20:40.288Z,8.38
2023-05-01T04:23:07.619Z,8.19
2023-05-01T04:25:34.141Z,8.06
2023-05-01T04:28:00.677Z,8.00
2023-05-01T04:30:27.284Z,8.06
2023-05-01T04:32:54.149Z,8.06
2023-05-01T04:35:20.747Z,8.06
2023-05-01T04:37:47.357Z,8.31
2023-05-01T04:40:13.928Z,8.50
2023-05-01T04:42:40.641Z,8.56
2023-05-01T04:45:07.398Z,8.63
2023-05-01T04:47:34.001Z,8.56
2023-05-01T04:50:01.241Z,8.69
2023-05-01T04:52:27.845Z,8.81
2023-05-01T04:54:54.345Z,8.94
2023-05-01T04:57:20.951Z,9.06
2023-05-01T04:59:48.292Z,9.13
2023-05-01T05:02:14.816Z,9.19
2023-05-01T05:04:41.339Z,9.19
2023-05-01T05:07:09.145Z,9.31
2023-05-01T05:09:36.152Z,9.19
2023-05-01T05:12:03.919Z,8.94
2023-05-01T05:14:30.724Z,8.75
2023-05-01T05:16:57.293Z,8.69
2023-05-01T05:19:24.000Z,8.81
2023-05-01T05:21:50.538Z,8.94
2023-05-01T05:24:17.091Z,9.00
2023-05-01T05:26:43.700Z,9.13
2023-05-01T05:29:10.245Z,9.25
2023-05-01T05:31:37.359Z,9.31
2023-05-01T05:34:03.975Z,9.31
2023-05-01T05:36:30.862Z,9.31
2023-05-01T05:38:57.380Z,9.38
2023-05-01T05:41:23.959Z,9.38
2023-05-01T05:43:50.581Z,9.44
2023-05-01T05:46:17.245Z,9.63
2023-05-01T05:48:43.878Z,9.69
2023-05-01T05:51:10.522Z,9.75
2023-05-01T05:53:37.098Z,9.69
2023-05-01T05:56:04.635Z,9.69
2023-05-01T05:58:31.220Z,9.63
2023-05-01T06:00:57.776Z,9.63
2023-05-01T06:03:24.532Z,9.56
2023-05-01T06:05:51.307Z,9.63
2023-05-01T06:08:17.896Z,9.63
2023-05-01T06:10:46.036Z,9.69
2023-05-01T06:13:14.906Z,9.69
2023-05-01T06:15:41.968Z,9.81
2023-05-01T06:18:08.941Z,9.81
2023-05-01T06:20:36.132Z,9.88
2023-05-01T06:23:02.666Z,9.81
2023-05-01T06:25:29.332Z,9.94
2023-05-01T06:27:56.141Z,9.94
2023-05-01T06:30:22.760Z,10.00
2023-05-01T06:32:49.774Z,9.94
2023-05-01T06:35:16.453Z,10.06
2023-05-01T06:37:43.006Z,10.19
2023-05-01T06:40:09.973Z,10.38
2023-05-01T06:42:40.079Z,10.44
2023-05-01T06:45:08.027Z,10.56
2023-05-01T06:47:34.625Z,10.63
2023-05-01T06:50:02.868Z,10.69
2023-05-01T06:52:31.110Z,10.75
2023-05-01T06:54:57.734Z,10.75
2023-05-01T06:57:24.260Z,10.63
2023-05-01T06:59:50.827Z,10.63
2023-05-01T07:02:17.495Z,10.63
2023-05-01T07:04:44.676Z,10.69
2023-05-01T07:07:11.320Z,10.81
2023-05-01T07:09:38.678Z,10.75
2023-05-01T07:12:06.001Z,10.88
2023-05-01T07:14:34.295Z,10.94
2023-05-01T07:17:01.226Z,11.06
2023-05-01T07:19:28.076Z,11.00
2023-05-01T07:21:54.689Z,11.06
2023-05-01T07:24:21.397Z,11.06
2023-05-01T07:26:47.968Z,11.13
2023-05-01T07:29:16.345Z,11.19
2023-05-01T07:31:43.366Z,11.25
2023-05-01T07:34:10.168Z,11.38
2023-05-01T07:36:36.753Z,11.56
2023-05-01T07:39:04.097Z,11.38
2023-05-01T07:41:33.623Z,11.44
2023-05-01T07:44:00.780Z,11.44
2023-05-01T07:46:27.596Z,11.44
2023-05-01T07:48:54.444Z,11.50
2023-05-01T07:51:21.234Z,11.63
2023-05-01T07:53:49.316Z,11.63
2023-05-01T07:56:16.383Z,11.63
2023-05-01T07:58:43.936Z,11.63
2023-05-01T08:01:11.102Z,11.69
2023-05-01T08:03:37.987Z,11.56
2023-05-01T08:06:05.601Z,11.63
2023-05-01T08:08:32.212Z,11.75
2023-05-01T08:10:58.833Z,11.69
2023-05-01T08:13:25.453Z,11.75
2023-05-01T08:15:52.507Z,11.81
2023-05-01T08:18:21.689Z,11.88
2023-05-01T08:20:48.876Z,12.00
2023-05-01T08:23:16.281Z,11.88
2023-05-01T08:25:43.571Z,11.94
2023-05-01T08:28:10.261Z,11.94
2023-05-01T08:30:36.871Z,11.88
2023-05-01T08:33:03.665Z,12.00
2023-05-01T08:35:30.322Z,12.00
2023-05-01T08:37:57.918Z,12.00
2023-05-01T08:40:26.233Z,12.00
2023-05-01T08:42:54.790Z,12.00
2023-05-01T08:45:24.200Z,12.06
2023-05-01T08:47:53.664Z,12.13
2023-05-01T08:50:22.598Z,12.06
2023-05-01T08:52:52.686Z,12.25
2023-05-01T08:55:19.709Z,12.19
2023-05-01T08:57:47.373Z,12.31
2023-05-01T09:00:23.280Z,12.25
2023-05-01T09:02:51.179Z,12.13
2023-05-01T09:05:19.338Z,12.13
2023-05-01T09:07:46.963Z,12.38
2023-05-01T09:10:15.783Z,12.38
2023-05-01T09:12:46.134Z,12.44
2023-05-01T09:15:13.242Z,12.44
2023-05-01T09:17:40.340Z,12.56
2023-05-01T09:20:07.705Z,12.69
2023-05-01T09:22:35.110Z,12.75
2023-05-01T09:25:02.151Z,12.94
2023-05-01T09:27:29.659Z,13.00
2023-05-01T09:29:56.482Z,13.13
2023-05-01T09:32:26.273Z,13.13
2023-05-01T09:34:53.463Z,13.19
2023-05-01T09:37:31.207Z,13.25
2023-05-01T09:40:10.187Z,13.44
2023-05-01T09:42:39.379Z,13.56
2023-05-01T09:45:13.224Z,13.69
2023-05-01T09:47:39.997Z,13.63
2023-05-01T09:50:07.199Z,13.75
2023-05-01T09:52:33.919Z,13.88
2023-05-01T09:55:17.027Z,14.00
2023-05-01T09:57:45.315Z,14.00
2023-05-01T10:00:16.865Z,14.13
2023-05-01T10:02:46.011Z,14.25
2023-05-01T10:05:14.016Z,14.38
2023-05-01T10:07:57.250Z,14.44
2023-05-01T10:10:24.167Z,14.44
2023-05-01T10:12:50.871Z,14.56
2023-05-01T10:15:25.516Z,14.63
2023-05-01T10:17:54.385Z,14.56
2023-05-01T10:20:21.706Z,14.56
2023-05-01T10:22:49.042Z,14.75
2023-05-01T10:25:17.901Z,14.69
2023-05-01T10:27:44.759Z,14.75
2023-05-01T10:30:11.561Z,14.88
2023-05-01T10:32:41.228Z,15.13
2023-05-01T10:35:28.043Z,15.25
2023-05-01T10:38:01.906Z,15.19
2023-05-01T10:40:43.375Z,15.25
2023-05-01T10:43:15.841Z,15.25
2023-05-01T10:45:47.333Z,15.19
2023-05-01T10:48:47.692Z,15.31
2023-05-01T10:51:24.355Z,15.50
2023-05-01T10:54:12.451Z,15.63
2023-05-01T10:56:38.910Z,15.56
2023-05-01T10:59:06.373Z,15.63
2023-05-01T11:01:35.500Z,15.63
2023-05-01T11:04:04.396Z,15.69
2023-05-01T11:06:31.748Z,15.81
2023-05-01T11:08:59.161Z,15.69
2023-05-01T11:11:25.915Z,15.63
2023-05-01T11:13:59.809Z,15.63
2023-05-01T11:16:41.936Z,15.75
2023-05-01T11:19:10.903Z,15.56
2023-05-01T11:21:39.007Z,15.69
2023-05-01T11:24:06.857Z,15.81
2023-05-01T11:26:42.223Z,15.69
2023-05-01T11:29:10.716Z,15.69
2023-05-01T11:31:38.543Z,15.69
2023-05-01T11:34:08.797Z,15.81
2023-05-01T11:36:52.049Z,16.06
2023-05-01T11:39:19.444Z,16.13
2023-05-01T11:41:46.733Z,16.19
2023-05-01T11:44:16.352Z,16.19
2023-05-01T11:46:43.027Z,16.25
2023-05-01T11:49:11.701Z,16.44
2023-05-01T11:51:38.428Z,16.69
2023-05-01T11:54:07.407Z,17.00
2023-05-01T11:56:35.323Z,17.31
2023-05-01T11:59:16.442Z,17.38
2023-05-01T12:01:45.427Z,17.69
2023-05-01T12:04:13.832Z,17.63
2023-05-01T12:06:45.943Z,17.69
2023-05-01T12:09:23.629Z,17.63
2023-05-01T12:11:52.714Z,17.69
2023-05-01T12:14:21.636Z,17.56
2023-05-01T12:16:49.268Z,17.31
2023-05-01T12:19:18.147Z,17.25
2023-05-01T12:21:44.848Z,17.50
2023-05-01T12:24:16.850Z,17.56
2023-05-01T12:26:44.153Z,17.06
2023-05-01T12:29:11.260Z,16.88
2023-05-01T12:31:46.896Z,16.44
2023-05-01T12:34:13.572Z,16.25
2023-05-01T12:36:40.124Z,16.00
2023-05-01T12:39:09.030Z,15.81
2023-05-01T12:41:44.336Z,15.56
2023-05-01T12:44:24.918Z,15.63
2023-05-01T12:46:57.504Z,15.38
2023-05-01T12:49:24.307Z,15.38
2023-05-01T12:51:52.977Z,15.50
2023-05-01T12:54:29.576Z,15.50
2023-05-01T12:57:17.868Z,15.50
2023-05-01T12:59:46.169Z,15.44
2023-05-01T13:02:16.041Z,15.31
2023-05-01T13:04:48.889Z,15.25
2023-05-01T13:07:17.641Z,15.19
2023-05-01T13:09:55.540Z,15.31
2023-05-01T13:12:22.888Z,15.06
2023-05-01T13:14:50.786Z,15.00
2023-05-01T13:17:29.205Z,15.13
2023-05-01T13:19:58.651Z,15.13
2023-05-01T13:22:37.489Z,15.06
2023-05-01T13:25:10.065Z,14.88
2023-05-01T13:27:37.204Z,14.75
2023-05-01T13:30:04.041Z,14.88
2023-05-01T13:32:31.790Z,14.88
2023-05-01T13:35:00.926Z,14.75
2023-05-01T13:37:28.336Z,14.63
2023-05-01T13:40:00.492Z,14.63
2023-05-01T13:42:27.323Z,14.38
2023-05-01T13:44:56.617Z,14.25
2023-05-01T13:47:27.487Z,14.31
2023-05-01T13:49:54.724Z,14.38
2023-05-01T13:52:21.464Z,14.50
2023-05-01T13:54:48.628Z,14.56
2023-05-01T13:57:18.507Z,14.63
2023-05-01T13:59:47.039Z,14.56
2023-05-01T14:02:23.104Z,14.50
2023-05-01T14:04:49.775Z,14.50
2023-05-01T14:07:21.402Z,14.63
2023-05-01T14:09:58.440Z,14.56
2023-05-01T14:12:30.230Z,14.69
2023-05-01T14:14:57.774Z,14.88
2023-05-01T14:17:32.480Z,15.00
2023-05-01T14:19:59.331Z,15.19
2023-05-01T14:22:29.474Z,15.13
2023-05-01T14:24:56.090Z,15.38
2023-05-01T14:27:22.770Z,15.50
2023-05-01T14:29:49.655Z,15.88
2023-05-01T14:32:16.277Z,16.06
2023-05-01T14:34:43.031Z,16.25
2023-05-01T14:37:10.050Z,16.69
2023-05-01T14:39:36.688Z,17.00
2023-05-01T14:42:04.947Z,17.00
2023-05-01T14:44:31.532Z,17.06
2023-05-01T14:46:59.238Z,17.06
2023-05-01T14:49:26.075Z,17.31
2023-05-01T14:51:54.019Z,17.19
2023-05-01T14:54:21.170Z,17.31
2023-05-01T14:56:48.677Z,17.50
2023-05-01T14:59:16.279Z,17.44
2023-05-01T15:01:44.064Z,17.19
2023-05-01T15:04:11.766Z,16.56
2023-05-01T15:06:38.617Z,16.31
2023-05-01T15:09:05.410Z,16.06
2023-05-01T15:11:32.004Z,16.06
2023-05-01T15:13:59.106Z,16.31
2023-05-01T15:16:26.106Z,16.31
2023-05-01T15:18:52.747Z,16.19
2023-05-01T15:21:19.294Z,16.31
2023-05-01T15:23:46.051Z,16.31
2023-05-01T15:26:12.567Z,16.19
2023-05-01T15:28:39.109Z,16.31
2023-05-01T15:31:05.918Z,16.25
2023-05-01T15:33:32.551Z,16.19
2023-05-01T15:35:59.191Z,16.44
2023-05-01T15:38:27.182Z,16.44
2023-05-01T15:40:53.924Z,16.69
2023-05-01T15:43:22.267Z,16.63
2023-05-01T15:45:49.728Z,16.56
2023-05-01T15:48:16.424Z,16.25
2023-05-01T15:50:42.989Z,16.06
2023-05-01T15:53:09.564Z,15.94
2023-05-01T15:55:36.689Z,15.94
2023-05-01T15:58:03.542Z,15.88
2023-05-01T16:00:30.262Z,15.88
2023-05-01T16:02:57.072Z,16.00
2023-05-01T16:05:24.794Z,15.75
2023-05-01T16:07:55.082Z,15.75
2023-05-01T16:10:22.379Z,15.63
2023-05-01T16:12:50.903Z,15.69
2023-05-01T16:15:17.885Z,15.69
2023-05-01T16:17:45.954Z,15.69
2023-05-01T16:20:14.141Z,15.56
2023-05-01T16:22:42.921Z,15.56
2023-05-01T16:25:10.585Z,15.56
2023-05-01T16:27:47.408Z,15.56
2023-05-01T16:30:14.524Z,15.44
2023-05-01T16:32:42.067Z,15.50
2023-05-01T16:35:17.422Z,15.50
2023-05-01T16:37:44.142Z,15.44
2023-05-01T16:40:16.571Z,15.44
2023-05-01T16:42:50.627Z,15.38
2023-05-01T16:45:17.425Z,15.38
2023-05-01T16:47:44.313Z,15.31
2023-05-01T16:50:10.957Z,15.19
2023-05-01T16:52:39.337Z,14.94
2023-05-01T16:55:06.530Z,14.81
2023-05-01T16:57:33.188Z,14.88
2023-05-01T17:00:00.025Z,14.94
2023-05-01T17:02:26.906Z,14.88
2023-05-01T17:04:53.817Z,14.94
2023-05-01T17:07:23.109Z,14.75
2023-05-01T17:09:49.672Z,14.63
2023-05-01T17:12:16.315Z,14.63
2023-05-01T17:14:42.844Z,14.75
2023-05-01T17:17:09.768Z,14.63
2023-05-01T17:19:38.747Z,14.63
2023-05-01T17:22:06.264Z,14.56
2023-05-01T17:24:33.022Z,14.75
2023-05-01T17:26:59.656Z,14.81
2023-05-01T17:29:27.598Z,14.69
2023-05-01T17:31:54.228Z,14.75
2023-05-01T17:34:21.195Z,14.75
2023-05-01T17:36:47.753Z,14.69
2023-05-01T17:39:14.424Z,14.63
2023-05-01T17:41:41.039Z,14.69
2023-05-01T17:44:07.637Z,14.63
2023-05-01T17:46:35.390Z,14.56
2023-05-01T17:49:02.009Z,14.50
2023-05-01T17:51:28.647Z,14.50
2023-05-01T17:54:22.435Z,14.56
2023-05-01T17:56:49.035Z,14.56
2023-05-01T17:59:16.234Z,14.44
2023-05-01T18:01:42.843Z,14.44
2023-05-01T18:04:09.549Z,14.31
2023-05-01T18:06:36.668Z,14.31
2023-05-01T18:09:03.766Z,14.31
2023-05-01T18:11:30.306Z,14.38
2023-05-01T18:13:56.867Z,14.31
2023-05-01T18:16:24.596Z,14.25
2023-05-01T18:18:51.301Z,14.13
2023-05-01T18:21:17.876Z,14.00
2023-05-01T18:23:45.445Z,14.00
2023-05-01T18:26:12.942Z,13.94
2023-05-01T18:28:39.546Z,13.81
2023-05-01T18:31:06.143Z,13.75
2023-05-01T18:33:33.073Z,13.81
2023-05-01T18:35:59.923Z,13.81
2023-05-01T18:38:28.594Z,13.88
2023-05-01T18:40:55.532Z,13.75
2023-05-01T18:43:22.100Z,13.75
2023-05-01T18:45:48.656Z,13.69
2023-05-01T18:48:15.236Z,13.63
2023-05-01T18:50:42.476Z,13.63
2023-05-01T18:53:09.131Z,13.56
2023-05-01T18:55:35.675Z,13.56
2023-05-01T18:58:02.348Z,13.50
2023-05-01T19:00:29.686Z,13.50
2023-05-01T19:02:56.447Z,13.38
2023-05-01T19:05:24.997Z,13.31
2023-05-01T19:07:51.783Z,13.31
2023-05-01T19:10:18.448Z,13.25
2023-05-01T19:12:45.580Z,13.19
2023-05-01T19:15:13.450Z,13.19
2023-05-01T19:17:40.048Z,13.19
2023-05-01T19:20:07.527Z,13.13
2023-05-01T19:22:34.164Z,13.13
2023-05-01T19:25:01.294Z,13.06
2023-05-01T19:27:27.942Z,13.00
2023-05-01T19:29:54.625Z,13.00
2023-05-01T19:32:21.297Z,12.88
2023-05-01T19:34:47.823Z,12.88
2023-05-01T19:37:14.402Z,12.81
2023-05-01T19:39:40.989Z,12.69
2023-05-01T19:42:07.577Z,12.63
2023-05-01T19:44:34.189Z,12.63
2023-05-01T19:47:00.846Z,12.56
2023-05-01T19:49:27.625Z,12.56
2023-05-01T19:51:54.210Z,12.56
2023-05-01T19:54:22.449Z,12.44
2023-05-01T19:56:51.499Z,12.38
2023-05-01T19:59:18.932Z,12.31
2023-05-01T20:01:45.703Z,12.25
2023-05-01T20:04:12.560Z,12.13
2023-05-01T20:06:39.192Z,12.06
2023-05-01T20:09:06.430Z,12.06
2023-05-01T20:11:33.401Z,11.94
2023-05-01T20:14:00.691Z,11.88
2023-05-01T20:16:27.940Z,11.75
2023-05-01T20:18:54.505Z,11.75
2023-05-01T20:21:21.030Z,11.75
2023-05-01T20:23:47.816Z,11.63
2023-05-01T20:26:14.400Z,11.69
2023-05-01T20:28:41.069Z,11.69
2023-05-01T20:31:07.715Z,11.69
2023-05-01T20:33:34.277Z,11.69
2023-05-01T20:36:00.897Z,11.69
2023-05-01T20:38:27.481Z,11.75
2023-05-01T20:40:53.999Z,11.69
2023-05-01T20:43:20.974Z,11.75
2023-05-01T20:45:47.536Z,11.75
2023-05-01T20:48:14.166Z,11.75
2023-05-01T20:50:43.595Z,11.81
2023-05-01T20:53:10.217Z,11.75
2023-05-01T20:55:36.821Z,11.81
2023-05-01T20:58:03.565Z,11.75
2023-05-01T21:00:30.182Z,11.81
2023-05-01T21:02:58.727Z,11.88
2023-05-01T21:05:25.431Z,11.75
2023-05-01T21:07:51.936Z,11.75
2023-05-01T21:10:18.455Z,11.63
2023-05-01T21:12:44.984Z,11.69
2023-05-01T21:15:11.938Z,11.63
2023-05-01T21:17:40.503Z,11.56
2023-05-01T21:20:18.477Z,11.50
2023-05-01T21:22:46.139Z,11.31
2023-05-01T21:25:15.801Z,11.25
2023-05-01T21:27:42.500Z,11.31
2023-05-01T21:30:14.902Z,11.31
2023-05-01T21:32:42.155Z,11.31
2023-05-01T21:35:10.073Z,11.25
2023-05-01T21:37:37.302Z,11.31
2023-05-01T21:40:06.444Z,11.44
2023-05-01T21:42:39.970Z,11.44
2023-05-01T21:45:08.797Z,11.31
2023-05-01T21:47:42.671Z,11.38
2023-05-01T21:50:15.489Z,11.31
2023-05-01T21:52:46.554Z,11.38
2023-05-01T21:55:18.686Z,11.38
2023-05-01T21:57:45.607Z,11.38
2023-05-01T22:00:12.531Z,11.38
2023-05-01T22:02:44.396Z,11.44
2023-05-01T22:05:13.650Z,11.50
2023-05-01T22:07:41.645Z,11.38
2023-05-01T22:10:12.651Z,11.31
2023-05-01T22:12:39.944Z,11.31
2023-05-01T22:15:07.820Z,11.31
2023-05-01T22:17:34.653Z,11.25
2023-05-01T22:20:01.418Z,11.31
2023-05-01T22:22:28.191Z,11.25
2023-05-01T22:24:54.776Z,11.25
2023-05-01T22:27:21.316Z,11.25
2023-05-01T22:29:47.872Z,11.19
2023-05-01T22:32:14.571Z,11.19
2023-05-01T22:34:41.148Z,11.19
2023-05-01T22:37:07.773Z,11.25
2023-05-01T22:39:36.099Z,11.25
2023-05-01T22:42:05.872Z,11.25
2023-05-01T22:44:33.192Z,11.25
2023-05-01T22:46:59.794Z,11.25
2023-05-01T22:49:28.006Z,11.19
2023-05-01T22:51:57.861Z,11.25
2023-05-01T22:54:24.757Z,11.25
2023-05-01T22:56:51.746Z,11.13
2023-05-01T22:59:19.057Z,11.13
2023-05-01T23:01:46.135Z,11.13
2023-05-01T23:04:13.834Z,11.06
2023-05-01T23:06:41.005Z,11.13
2023-05-01T23:09:08.349Z,11.00
2023-05-01T23:11:35.047Z,11.06
2023-05-01T23:14:01.650Z,11.00
2023-05-01T23:16:32.368Z,11.00
2023-05-01T23:18:59.014Z,11.00
2023-05-01T23:21:25.591Z,10.94
2023-05-01T23:23:53.196Z,10.88
2023-05-01T23:26:29.013Z,10.88
2023-05-01T23:28:55.722Z,10.88
2023-05-01T23:31:27.066Z,10.81
2023-05-01T23:33:54.984Z,10.81
2023-05-01T23:36:21.997Z,10.81
2023-05-01T23:38:48.655Z,10.81
2023-05-01T23:41:15.729Z,10.69
2023-05-01T23:43:42.564Z,10.69
2023-05-01T23:46:09.300Z,10.69
2023-05-01T23:48:36.436Z,10.63
2023-05-01T23:51:03.628Z,10.69
2023-05-01T23:53:30.402Z,10.63
2023-05-01T23:55:57.036Z,10.75
2023-05-01T23:58:25.016Z,10.69
